createdAt,value
2019-02-18T00:01:00.147Z,14.80
2019-02-18T00:03:29.022Z,17.20
2019-02-18T00:05:57.827Z,17.35
2019-02-18T00:08:26.748Z,13.98
2019-02-18T00:10:55.551Z,17.40
2019-02-18T00:13:24.493Z,15.93
2019-02-18T00:15:53.354Z,18.10
2019-02-18T00:18:22.149Z,18.12
2019-02-18T00:20:51.005Z,16.70
2019-02-18T00:23:19.820Z,15.80
2019-02-18T00:25:48.609Z,17.73
2019-02-18T00:28:17.396Z,16.12
2019-02-18T00:30:46.187Z,23.57
2019-02-18T00:33:15.237Z,24.23
2019-02-18T00:35:44.029Z,21.42
2019-02-18T00:38:12.821Z,21.57
2019-02-18T00:40:42.180Z,21.65
2019-02-18T00:43:10.985Z,21.25
2019-02-18T00:45:40.013Z,23.60
2019-02-18T00:48:08.816Z,19.40
2019-02-18T00:50:37.608Z,16.65
2019-02-18T00:53:06.404Z,21.20
2019-02-18T00:55:35.202Z,20.65
2019-02-18T00:58:04.324Z,23.62
2019-02-18T01:00:33.365Z,20.82
2019-02-18T01:03:02.234Z,21.77
2019-02-18T01:05:31.171Z,21.30
2019-02-18T01:08:00.212Z,19.50
2019-02-18T01:10:29.205Z,20.27
2019-02-18T01:12:58.069Z,24.10
2019-02-18T01:15:26.930Z,21.07
2019-02-18T01:17:55.804Z,17.07
2019-02-18T01:20:24.597Z,16.73
2019-02-18T01:22:53.703Z,17.92
2019-02-18T01:25:22.737Z,18.75
2019-02-18T01:27:51.781Z,16.67
2019-02-18T01:30:20.637Z,17.62
2019-02-18T01:32:49.930Z,17.80
2019-02-18T01:35:18.793Z,19.67
2019-02-18T01:37:47.577Z,20.90
2019-02-18T01:40:16.454Z,19.17
2019-02-18T01:42:45.236Z,23.20
2019-02-18T01:45:14.990Z,15.98
2019-02-18T01:47:43.900Z,18.65
2019-02-18T01:50:14.101Z,19.85
2019-02-18T01:52:42.889Z,17.52
2019-02-18T01:55:12.490Z,19.05
2019-02-18T01:57:41.678Z,16.02
2019-02-18T02:00:13.329Z,15.23
2019-02-18T02:02:42.184Z,17.25
2019-02-18T02:05:12.573Z,16.77
2019-02-18T02:07:41.420Z,22.80
2019-02-18T02:10:11.778Z,17.35
2019-02-18T02:12:40.894Z,16.42
2019-02-18T02:15:15.736Z,20.60
2019-02-18T02:17:44.773Z,19.05
2019-02-18T02:20:13.825Z,19.73
2019-02-18T02:22:42.614Z,17.20
2019-02-18T02:25:11.583Z,16.05
2019-02-18T02:27:40.466Z,19.50
2019-02-18T02:30:09.519Z,18.37
2019-02-18T02:32:38.373Z,18.80
2019-02-18T02:35:07.565Z,18.30
2019-02-18T02:37:36.681Z,19.75
2019-02-18T02:40:06.157Z,21.52
2019-02-18T02:42:35.175Z,18.27
2019-02-18T02:45:04.061Z,16.48
2019-02-18T02:47:33.106Z,17.67
2019-02-18T02:50:02.496Z,19.52
2019-02-18T02:52:31.285Z,19.45
2019-02-18T02:55:00.333Z,20.70
2019-02-18T02:57:29.381Z,19.27
2019-02-18T02:59:58.185Z,16.80
2019-02-18T03:02:27.202Z,18.20
2019-02-18T03:04:56.242Z,15.60
2019-02-18T03:07:25.031Z,21.57
2019-02-18T03:09:53.838Z,16.17
2019-02-18T03:12:22.725Z,17.60
2019-02-18T03:14:51.574Z,19.55
2019-02-18T03:17:20.372Z,18.75
2019-02-18T03:19:49.244Z,31.05
2019-02-18T03:22:18.282Z,22.80
2019-02-18T03:25:15.057Z,18.12
2019-02-18T03:27:43.985Z,23.67
2019-02-18T03:30:35.470Z,16.37
2019-02-18T03:33:04.456Z,19.82
2019-02-18T03:35:33.604Z,16.77
2019-02-18T03:38:02.396Z,15.23
2019-02-18T03:40:31.273Z,17.80
2019-02-18T03:43:00.057Z,16.15
2019-02-18T03:45:29.137Z,17.40
2019-02-18T03:47:57.916Z,18.57
2019-02-18T03:50:26.704Z,19.25
2019-02-18T03:52:55.496Z,18.42
2019-02-18T03:55:24.758Z,16.85
2019-02-18T03:57:53.548Z,16.87
2019-02-18T04:00:22.421Z,16.97
2019-02-18T04:02:51.269Z,18.23
2019-02-18T04:05:20.397Z,17.37
2019-02-18T04:07:49.433Z,19.82
2019-02-18T04:10:18.315Z,19.92
2019-02-18T04:12:47.340Z,19.70
2019-02-18T04:15:16.153Z,17.10
2019-02-18T04:17:45.013Z,19.65
2019-02-18T04:20:14.038Z,16.50
2019-02-18T04:22:43.336Z,21.23
2019-02-18T04:25:12.186Z,20.77
2019-02-18T04:27:41.056Z,17.75
2019-02-18T04:30:10.136Z,17.45
2019-02-18T04:32:39.190Z,16.97
2019-02-18T04:35:08.185Z,19.57
2019-02-18T04:37:37.097Z,17.65
2019-02-18T04:40:06.232Z,21.05
2019-02-18T04:42:35.289Z,21.57
2019-02-18T04:45:04.333Z,15.68
2019-02-18T04:47:33.125Z,34.58
2019-02-18T04:50:01.925Z,44.35
2019-02-18T04:52:31.272Z,32.58
2019-02-18T04:55:00.313Z,27.35
2019-02-18T04:57:31.345Z,34.15
2019-02-18T04:59:59.625Z,26.97
2019-02-18T05:02:28.910Z,24.82
2019-02-18T05:04:57.694Z,25.15
2019-02-18T05:07:27.027Z,25.25
2019-02-18T05:09:56.420Z,25.92
2019-02-18T05:12:25.220Z,30.15
2019-02-18T05:14:54.267Z,26.55
2019-02-18T05:17:23.056Z,24.37
2019-02-18T05:19:51.870Z,23.50
2019-02-18T05:22:20.745Z,27.70
2019-02-18T05:24:49.543Z,22.13
2019-02-18T05:27:18.581Z,30.05
2019-02-18T05:29:47.855Z,23.18
2019-02-18T05:32:16.648Z,20.82
2019-02-18T05:34:45.685Z,22.02
2019-02-18T05:37:14.483Z,20.05
2019-02-18T05:39:43.276Z,20.62
2019-02-18T05:42:12.073Z,20.75
2019-02-18T05:44:40.856Z,21.77
2019-02-18T05:47:10.153Z,19.80
2019-02-18T05:49:38.949Z,18.17
2019-02-18T05:52:07.865Z,24.77
2019-02-18T05:54:36.806Z,21.52
2019-02-18T05:57:05.917Z,22.95
2019-02-18T05:59:34.945Z,18.73
2019-02-18T06:02:03.993Z,20.65
2019-02-18T06:04:32.789Z,21.15
2019-02-18T06:07:01.860Z,22.90
2019-02-18T06:09:30.919Z,34.98
2019-02-18T06:11:59.777Z,38.85
2019-02-18T06:14:30.354Z,31.77
2019-02-18T06:16:59.295Z,30.82
2019-02-18T06:19:28.518Z,37.28
2019-02-18T06:21:58.247Z,46.75
2019-02-18T06:24:27.075Z,36.30
2019-02-18T06:26:57.435Z,38.90
2019-02-18T06:29:27.216Z,31.37
2019-02-18T06:31:56.461Z,31.10
2019-02-18T06:34:25.639Z,31.12
2019-02-18T06:36:54.450Z,34.35
2019-02-18T06:39:23.254Z,26.05
2019-02-18T06:41:52.126Z,29.50
2019-02-18T06:44:27.539Z,27.55
2019-02-18T06:47:01.623Z,26.35
2019-02-18T06:49:31.225Z,25.52
2019-02-18T06:52:00.043Z,28.20
2019-02-18T06:54:28.949Z,24.70
2019-02-18T06:57:07.782Z,21.90
2019-02-18T06:59:46.620Z,30.45
2019-02-18T07:02:49.793Z,24.20
2019-02-18T07:05:42.900Z,22.77
2019-02-18T07:08:43.046Z,18.45
2019-02-18T07:11:22.152Z,19.92
2019-02-18T07:13:51.223Z,26.73
2019-02-18T07:16:20.033Z,16.32
2019-02-18T07:18:48.862Z,23.02
2019-02-18T07:21:17.730Z,18.05
2019-02-18T07:23:46.777Z,15.63
2019-02-18T07:26:15.843Z,18.62
2019-02-18T07:28:44.694Z,18.98
2019-02-18T07:31:13.565Z,14.85
2019-02-18T07:33:42.410Z,18.32
2019-02-18T07:36:11.550Z,13.95
2019-02-18T07:38:40.685Z,15.78
2019-02-18T07:41:09.729Z,18.70
2019-02-18T07:43:38.545Z,12.95
2019-02-18T07:46:07.688Z,16.37
2019-02-18T07:48:36.862Z,16.35
2019-02-18T07:51:05.730Z,17.82
2019-02-18T07:53:34.801Z,17.27
2019-02-18T07:56:03.913Z,21.27
2019-02-18T07:58:32.877Z,15.95
2019-02-18T08:01:01.824Z,16.97
2019-02-18T08:03:30.986Z,15.08
2019-02-18T08:05:59.785Z,12.78
2019-02-18T08:08:28.859Z,16.82
2019-02-18T08:10:57.744Z,20.92
2019-02-18T08:13:26.877Z,17.25
2019-02-18T08:15:56.338Z,16.32
2019-02-18T08:18:25.502Z,17.70
2019-02-18T08:20:54.787Z,18.77
2019-02-18T08:23:23.611Z,15.00
2019-02-18T08:25:52.405Z,14.18
2019-02-18T08:28:21.202Z,18.07
2019-02-18T08:30:49.992Z,14.53
2019-02-18T08:33:19.355Z,17.15
2019-02-18T08:35:48.163Z,14.15
2019-02-18T08:38:17.503Z,15.58
2019-02-18T08:40:46.836Z,18.02
2019-02-18T08:43:15.626Z,19.20
2019-02-18T08:45:44.763Z,18.00
2019-02-18T08:48:13.813Z,19.75
2019-02-18T08:50:42.613Z,17.42
2019-02-18T08:53:11.673Z,14.20
2019-02-18T08:55:40.491Z,20.15
2019-02-18T08:58:09.599Z,18.30
2019-02-18T09:00:38.477Z,15.60
2019-02-18T09:03:07.432Z,13.95
2019-02-18T09:05:36.367Z,16.93
2019-02-18T09:08:05.383Z,15.32
2019-02-18T09:10:34.595Z,20.23
2019-02-18T09:13:03.632Z,11.70
2019-02-18T09:15:32.779Z,14.07
2019-02-18T09:18:01.855Z,12.20
2019-02-18T09:20:31.437Z,11.00
2019-02-18T09:23:11.135Z,15.30
2019-02-18T09:25:44.447Z,12.97
2019-02-18T09:28:14.319Z,14.90
2019-02-18T09:30:46.349Z,14.20
2019-02-18T09:33:15.626Z,11.23
2019-02-18T09:35:45.291Z,11.90
2019-02-18T09:38:24.369Z,10.77
2019-02-18T09:40:50.467Z,10.60
2019-02-18T09:43:16.293Z,15.07
2019-02-18T09:45:45.495Z,11.60
2019-02-18T09:48:14.699Z,13.60
2019-02-18T09:50:44.059Z,15.57
2019-02-18T09:53:13.499Z,11.93
2019-02-18T09:55:42.978Z,14.47
2019-02-18T09:58:11.941Z,11.37
2019-02-18T10:00:41.136Z,10.80
2019-02-18T10:03:10.550Z,11.07
2019-02-18T10:05:39.601Z,10.80
2019-02-18T10:08:08.736Z,13.00
2019-02-18T10:10:38.142Z,12.63
2019-02-18T10:13:07.592Z,11.60
2019-02-18T10:15:36.806Z,12.20
2019-02-18T10:18:06.151Z,9.70
2019-02-18T10:20:35.431Z,10.40
2019-02-18T10:23:04.661Z,11.70
2019-02-18T10:25:34.172Z,12.30
2019-02-18T10:28:03.696Z,13.40
2019-02-18T10:30:32.970Z,11.60
2019-02-18T10:33:02.552Z,10.90
2019-02-18T10:35:31.972Z,10.23
2019-02-18T10:38:01.930Z,10.63
2019-02-18T10:40:31.140Z,10.87
2019-02-18T10:43:00.601Z,15.47
2019-02-18T10:45:29.979Z,11.03
2019-02-18T10:47:59.360Z,13.37
2019-02-18T10:50:28.374Z,12.10
2019-02-18T10:52:57.717Z,15.10
2019-02-18T10:55:27.046Z,11.73
2019-02-18T10:57:56.056Z,12.70
2019-02-18T11:00:25.292Z,12.30
2019-02-18T11:02:54.939Z,12.43
2019-02-18T11:05:23.914Z,13.00
2019-02-18T11:07:53.016Z,13.43
2019-02-18T11:10:22.066Z,15.70
2019-02-18T11:12:51.062Z,16.07
2019-02-18T11:15:20.112Z,9.83
2019-02-18T11:17:49.235Z,13.37
2019-02-18T11:20:18.687Z,10.70
2019-02-18T11:22:47.716Z,13.13
2019-02-18T11:25:16.769Z,10.47
2019-02-18T11:27:45.661Z,12.97
2019-02-18T11:30:14.825Z,17.77
2019-02-18T11:32:44.117Z,13.37
2019-02-18T11:35:13.529Z,18.63
2019-02-18T11:37:42.631Z,12.40
2019-02-18T11:40:13.317Z,12.70
2019-02-18T11:42:42.393Z,12.20
2019-02-18T11:45:12.928Z,13.00
2019-02-18T11:47:41.910Z,15.97
2019-02-18T11:50:11.654Z,13.33
2019-02-18T11:52:42.553Z,10.50
2019-02-18T11:55:11.804Z,12.43
2019-02-18T11:57:41.418Z,11.10
2019-02-18T12:00:11.657Z,11.83
2019-02-18T12:02:40.544Z,15.20
2019-02-18T12:05:12.441Z,10.20
2019-02-18T12:07:41.548Z,13.70
2019-02-18T12:10:10.505Z,9.83
2019-02-18T12:12:39.938Z,13.57
2019-02-18T12:15:09.869Z,9.57
2019-02-18T12:17:38.739Z,12.83
2019-02-18T12:20:09.974Z,9.50
2019-02-18T12:22:38.942Z,11.77
2019-02-18T12:25:07.990Z,8.87
2019-02-18T12:27:37.109Z,11.37
2019-02-18T12:30:06.954Z,11.60
2019-02-18T12:32:35.921Z,11.87
2019-02-18T12:35:05.063Z,14.37
2019-02-18T12:37:34.261Z,9.43
2019-02-18T12:40:03.154Z,10.20
2019-02-18T12:42:32.110Z,10.27
2019-02-18T12:45:00.993Z,14.73
2019-02-18T12:47:29.894Z,10.93
2019-02-18T12:50:00.378Z,13.17
2019-02-18T12:52:32.705Z,10.60
2019-02-18T12:55:02.015Z,8.80
2019-02-18T12:57:30.951Z,11.00
2019-02-18T13:00:00.734Z,11.43
2019-02-18T13:02:31.602Z,9.37
2019-02-18T13:05:00.411Z,11.00
2019-02-18T13:07:34.984Z,8.20
2019-02-18T13:10:05.476Z,11.00
2019-02-18T13:12:34.417Z,9.13
2019-02-18T13:15:03.994Z,9.27
2019-02-18T13:17:33.142Z,9.40
2019-02-18T13:20:02.030Z,11.23
2019-02-18T13:22:30.852Z,7.73
2019-02-18T13:25:00.032Z,9.10
2019-02-18T13:27:29.217Z,11.00
2019-02-18T13:29:58.384Z,9.07
2019-02-18T13:32:27.809Z,9.03
2019-02-18T13:34:56.895Z,8.23
2019-02-18T13:37:25.811Z,10.80
2019-02-18T13:39:54.798Z,8.80
2019-02-18T13:42:23.753Z,10.07
2019-02-18T13:44:52.855Z,9.00
2019-02-18T13:47:22.246Z,8.83
2019-02-18T13:49:51.243Z,10.33
2019-02-18T13:52:20.488Z,8.40
2019-02-18T13:54:49.650Z,8.30
2019-02-18T13:57:18.451Z,9.77
2019-02-18T13:59:47.297Z,8.83
2019-02-18T14:02:16.592Z,9.07
2019-02-18T14:04:45.458Z,7.33
2019-02-18T14:07:14.857Z,8.40
2019-02-18T14:09:44.181Z,10.70
2019-02-18T14:12:16.080Z,13.20
2019-02-18T14:14:44.054Z,9.70
2019-02-18T14:17:13.340Z,12.33
2019-02-18T14:19:43.083Z,7.73
2019-02-18T14:22:13.027Z,9.60
2019-02-18T14:24:41.962Z,12.67
2019-02-18T14:27:11.093Z,12.13
2019-02-18T14:29:39.898Z,9.37
2019-02-18T14:32:09.331Z,12.90
2019-02-18T14:34:38.138Z,22.50
2019-02-18T14:37:07.069Z,9.63
2019-02-18T14:39:35.889Z,7.40
2019-02-18T14:42:04.780Z,14.77
2019-02-18T14:44:33.953Z,9.10
2019-02-18T14:47:02.926Z,6.33
2019-02-18T14:49:31.792Z,9.07
2019-02-18T14:52:00.741Z,7.30
2019-02-18T14:54:29.880Z,5.93
2019-02-18T14:56:58.669Z,6.90
2019-02-18T14:59:27.462Z,7.47
2019-02-18T15:01:56.813Z,7.63
2019-02-18T15:04:25.617Z,8.03
2019-02-18T15:06:54.470Z,7.73
2019-02-18T15:09:23.285Z,7.57
2019-02-18T15:11:52.145Z,6.13
2019-02-18T15:14:21.265Z,6.33
2019-02-18T15:16:50.137Z,14.03
2019-02-18T15:19:19.269Z,20.63
2019-02-18T15:21:48.607Z,8.60
2019-02-18T15:24:17.475Z,7.63
2019-02-18T15:26:46.416Z,6.40
2019-02-18T15:29:15.717Z,31.57
2019-02-18T15:32:04.310Z,17.67
2019-02-18T15:34:33.185Z,17.50
2019-02-18T15:37:02.308Z,12.80
2019-02-18T15:39:31.122Z,5.80
2019-02-18T15:41:59.956Z,9.53
2019-02-18T15:44:29.542Z,11.27
2019-02-18T15:46:58.498Z,11.37
2019-02-18T15:49:27.361Z,9.90
2019-02-18T15:51:56.411Z,8.53
2019-02-18T15:54:25.533Z,9.40
2019-02-18T15:56:54.688Z,21.00
2019-02-18T15:59:24.001Z,6.40
2019-02-18T16:01:53.054Z,6.90
2019-02-18T16:04:21.904Z,6.23
2019-02-18T16:06:50.945Z,7.37
2019-02-18T16:09:19.829Z,13.37
2019-02-18T16:11:48.693Z,5.23
2019-02-18T16:14:17.957Z,9.23
2019-02-18T16:16:46.777Z,11.80
2019-02-18T16:19:15.565Z,11.50
2019-02-18T16:21:44.356Z,7.13
2019-02-18T16:24:19.975Z,12.10
2019-02-18T16:26:43.889Z,5.17
2019-02-18T16:29:13.509Z,7.30
2019-02-18T16:31:42.401Z,6.90
2019-02-18T16:34:11.462Z,9.13
2019-02-18T16:36:40.270Z,9.07
2019-02-18T16:39:09.727Z,6.70
2019-02-18T16:41:38.544Z,5.73
2019-02-18T16:44:07.357Z,10.10
2019-02-18T16:46:36.465Z,7.53
2019-02-18T16:49:05.622Z,11.37
2019-02-18T16:51:34.664Z,13.77
2019-02-18T16:54:03.439Z,9.60
2019-02-18T16:56:32.505Z,9.77
2019-02-18T16:59:01.679Z,11.70
2019-02-18T17:01:30.512Z,10.80
2019-02-18T17:03:59.376Z,19.93
2019-02-18T17:06:28.177Z,18.17
2019-02-18T17:08:56.982Z,12.23
2019-02-18T17:11:25.784Z,15.77
2019-02-18T17:13:55.385Z,18.20
2019-02-18T17:16:24.292Z,24.67
2019-02-18T17:18:53.214Z,20.73
2019-02-18T17:21:22.080Z,21.17
2019-02-18T17:23:50.877Z,24.43
2019-02-18T17:26:20.262Z,22.80
2019-02-18T17:28:49.053Z,13.40
2019-02-18T17:31:17.864Z,24.83
2019-02-18T17:33:47.949Z,14.57
2019-02-18T17:36:16.805Z,18.90
2019-02-18T17:38:45.855Z,19.10
2019-02-18T17:41:14.677Z,24.43
2019-02-18T17:43:43.481Z,44.00
2019-02-18T17:46:12.637Z,31.33
2019-02-18T17:48:41.442Z,21.73
2019-02-18T17:51:10.603Z,22.63
2019-02-18T17:53:40.336Z,59.48
2019-02-18T17:56:09.978Z,41.90
2019-02-18T17:58:40.324Z,30.50
2019-02-18T18:01:09.647Z,16.97
2019-02-18T18:03:38.459Z,16.15
2019-02-18T18:06:07.693Z,34.83
2019-02-18T18:08:36.550Z,21.70
2019-02-18T18:11:05.852Z,25.70
2019-02-18T18:13:36.085Z,33.48
2019-02-18T18:16:06.009Z,27.10
2019-02-18T18:18:34.905Z,32.70
2019-02-18T18:21:03.792Z,26.73
2019-02-18T18:23:32.581Z,28.40
2019-02-18T18:26:01.717Z,18.42
2019-02-18T18:28:30.800Z,21.50
2019-02-18T18:30:59.874Z,25.88
2019-02-18T18:33:28.935Z,26.85
2019-02-18T18:35:58.126Z,22.13
2019-02-18T18:38:27.358Z,18.27
2019-02-18T18:40:56.180Z,16.32
2019-02-18T18:43:33.422Z,17.90
2019-02-18T18:45:55.785Z,22.75
2019-02-18T18:48:24.766Z,30.82
2019-02-18T18:50:57.377Z,20.85
2019-02-18T18:53:26.909Z,14.15
2019-02-18T18:55:57.677Z,22.77
2019-02-18T18:58:29.180Z,12.40
2019-02-18T19:00:59.012Z,13.65
2019-02-18T19:03:28.363Z,11.03
2019-02-18T19:05:57.592Z,16.87
2019-02-18T19:08:30.956Z,17.62
2019-02-18T19:11:01.233Z,9.60
2019-02-18T19:13:30.700Z,12.00
2019-02-18T19:16:00.518Z,16.05
2019-02-18T19:18:31.019Z,13.53
2019-02-18T19:21:01.297Z,17.02
2019-02-18T19:23:30.480Z,14.30
2019-02-18T19:25:59.690Z,18.45
2019-02-18T19:28:29.007Z,15.25
2019-02-18T19:30:57.798Z,13.43
2019-02-18T19:33:26.853Z,14.63
2019-02-18T19:35:55.677Z,13.53
2019-02-18T19:38:24.486Z,11.25
2019-02-18T19:40:54.060Z,15.58
2019-02-18T19:43:22.884Z,10.18
2019-02-18T19:45:51.711Z,13.75
2019-02-18T19:48:20.837Z,10.48
2019-02-18T19:50:49.638Z,11.55
2019-02-18T19:53:18.445Z,20.17
2019-02-18T19:55:47.237Z,20.92
2019-02-18T19:58:16.092Z,11.22
2019-02-18T20:00:45.054Z,12.18
2019-02-18T20:03:14.061Z,22.10
2019-02-18T20:05:43.308Z,15.15
2019-02-18T20:08:16.567Z,11.33
2019-02-18T20:10:49.778Z,16.52
2019-02-18T20:16:00.861Z,16.17
2019-02-18T20:18:29.785Z,21.35
2019-02-18T20:20:58.607Z,21.10
2019-02-18T20:23:27.869Z,23.05
2019-02-18T20:25:57.014Z,27.20
2019-02-18T20:28:25.833Z,19.70
2019-02-18T20:30:55.182Z,17.37
2019-02-18T20:33:23.976Z,20.72
2019-02-18T20:35:53.079Z,21.15
2019-02-18T20:38:22.248Z,20.55
2019-02-18T20:40:51.529Z,21.45
2019-02-18T20:43:20.315Z,27.65
2019-02-18T20:45:49.968Z,19.92
2019-02-18T20:48:18.828Z,22.77
2019-02-18T20:50:47.654Z,24.63
2019-02-18T20:53:16.467Z,17.00
2019-02-18T20:55:45.284Z,19.15
2019-02-18T20:58:14.349Z,19.17
2019-02-18T21:00:43.266Z,21.82
2019-02-18T21:03:12.425Z,24.37
2019-02-18T21:05:41.469Z,17.82
2019-02-18T21:08:10.338Z,20.60
2019-02-18T21:10:39.299Z,18.45
2019-02-18T21:13:08.394Z,18.40
2019-02-18T21:15:37.590Z,19.02
2019-02-18T21:18:06.520Z,19.52
2019-02-18T21:20:35.405Z,26.27
2019-02-18T21:23:04.519Z,17.05
2019-02-18T21:25:33.390Z,28.90
2019-02-18T21:28:02.458Z,19.05
2019-02-18T21:30:31.273Z,19.98
2019-02-18T21:33:00.086Z,26.30
2019-02-18T21:35:31.526Z,24.10
2019-02-18T21:38:00.337Z,22.13
2019-02-18T21:40:29.286Z,25.32
2019-02-18T21:42:58.204Z,22.58
2019-02-18T21:45:27.491Z,24.87
2019-02-18T21:47:56.761Z,22.52
2019-02-18T21:50:28.469Z,26.45
2019-02-18T21:52:57.330Z,18.50
2019-02-18T21:55:26.416Z,16.87
2019-02-18T21:57:55.201Z,18.92
2019-02-18T22:00:24.589Z,16.90
2019-02-18T22:02:53.761Z,15.38
2019-02-18T22:05:22.617Z,17.98
2019-02-18T22:07:51.401Z,13.28
2019-02-18T22:10:20.510Z,20.80
2019-02-18T22:12:49.296Z,22.35
2019-02-18T22:15:18.496Z,16.35
2019-02-18T22:17:47.356Z,20.88
2019-02-18T22:20:16.853Z,16.23
2019-02-18T22:22:45.968Z,16.15
2019-02-18T22:25:14.757Z,18.15
2019-02-18T22:27:43.889Z,17.20
2019-02-18T22:30:13.304Z,16.67
2019-02-18T22:32:42.181Z,15.72
2019-02-18T22:35:11.109Z,16.32
2019-02-18T22:37:39.981Z,15.88
2019-02-18T22:40:08.979Z,14.43
2019-02-18T22:42:37.840Z,17.55
2019-02-18T22:45:06.900Z,15.25
2019-02-18T22:47:35.684Z,17.23
2019-02-18T22:50:04.648Z,18.27
2019-02-18T22:52:33.901Z,17.32
2019-02-18T22:55:02.684Z,15.70
2019-02-18T22:57:31.561Z,17.73
2019-02-18T23:00:00.422Z,21.65
2019-02-18T23:02:29.608Z,17.15
2019-02-18T23:04:58.473Z,16.15
2019-02-18T23:07:27.533Z,16.57
2019-02-18T23:09:56.657Z,14.18
2019-02-18T23:12:25.449Z,15.80
2019-02-18T23:14:54.590Z,16.85
2019-02-18T23:17:23.441Z,16.75
2019-02-18T23:19:52.237Z,13.32
2019-02-18T23:22:21.100Z,16.50
2019-02-18T23:24:50.361Z,14.30
2019-02-18T23:27:19.169Z,13.95
2019-02-18T23:29:47.952Z,14.75
2019-02-18T23:32:16.762Z,18.95
2019-02-18T23:34:45.806Z,18.10
2019-02-18T23:37:14.600Z,15.30
2019-02-18T23:39:43.385Z,19.30
2019-02-18T23:42:12.273Z,14.83
2019-02-18T23:44:41.081Z,14.50
2019-02-18T23:47:09.877Z,16.80
2019-02-18T23:49:38.669Z,15.58
2019-02-18T23:52:07.489Z,19.52
2019-02-18T23:54:36.284Z,15.93
2019-02-18T23:57:05.170Z,17.27
2019-02-18T23:59:33.978Z,16.27
